sensor_id;sensor_type;location;lat;lon;timestamp;pressure;altitude;pressure_sealevel;temperature;humidity
11314;BME280;5712;48.858;9.206;2023-02-18T00:01:08;99043.03;;;12.04;87.95
11314;BME280;5712;48.858;9.206;2023-02-18T00:03:35;99046.25;;;12.09;87.08
11314;BME280;5712;48.858;9.206;2023-02-18T00:06:09;99040.03;;;12.10;87.23
11314;BME280;5712;48.858;9.206;2023-02-18T00:08:36;99047.19;;;12.08;87.21
11314;BME280;5712;48.858;9.206;2023-02-18T00:11:04;99031.22;;;12.09;87.60
11314;BME280;5712;48.858;9.206;2023-02-18T00:13:32;99044.38;;;12.11;87.37
11314;BME280;5712;48.858;9.206;2023-02-18T00:16:00;99046.25;;;12.09;87.28
11314;BME280;5712;48.858;9.206;2023-02-18T00:18:27;99042.84;;;12.07;87.78
11314;BME280;5712;48.858;9.206;2023-02-18T00:20:53;99046.63;;;12.03;88.33
11314;BME280;5712;48.858;9.206;2023-02-18T00:23:20;99044.75;;;12.05;88.39
11314;BME280;5712;48.858;9.206;2023-02-18T00:25:46;99042.00;;;12.06;87.82
11314;BME280;5712;48.858;9.206;2023-02-18T00:28:13;99049.69;;;12.11;87.50
11314;BME280;5712;48.858;9.206;2023-02-18T00:30:40;99042.00;;;12.06;87.77
11314;BME280;5712;48.858;9.206;2023-02-18T00:33:07;99040.41;;;12.04;87.97
11314;BME280;5712;48.858;9.206;2023-02-18T00:35:34;99039.81;;;11.99;88.26
11314;BME280;5712;48.858;9.206;2023-02-18T00:38:00;99039.72;;;12.00;88.65
11314;BME280;5712;48.858;9.206;2023-02-18T00:40:27;99032.91;;;11.96;88.97
11314;BME280;5712;48.858;9.206;2023-02-18T00:42:53;99014.16;;;11.99;88.26
11314;BME280;5712;48.858;9.206;2023-02-18T00:45:20;99013.31;;;11.99;88.96
11314;BME280;5712;48.858;9.206;2023-02-18T00:47:48;99008.97;;;11.98;88.90
11314;BME280;5712;48.858;9.206;2023-02-18T00:50:14;99005.38;;;11.99;88.91
11314;BME280;5712;48.858;9.206;2023-02-18T00:52:41;98995.91;;;11.95;88.94
11314;BME280;5712;48.858;9.206;2023-02-18T00:55:07;99006.69;;;11.92;88.77
11314;BME280;5712;48.858;9.206;2023-02-18T00:57:33;99014.81;;;11.89;89.45
11314;BME280;5712;48.858;9.206;2023-02-18T01:00:00;99019.38;;;11.87;89.29
11314;BME280;5712;48.858;9.206;2023-02-18T01:02:26;99018.69;;;11.83;89.60
11314;BME280;5712;48.858;9.206;2023-02-18T01:04:54;99020.31;;;11.86;89.70
11314;BME280;5712;48.858;9.206;2023-02-18T01:07:21;99016.88;;;11.84;89.43
11314;BME280;5712;48.858;9.206;2023-02-18T01:09:47;99017.66;;;11.86;88.84
11314;BME280;5712;48.858;9.206;2023-02-18T01:12:14;99021.06;;;11.88;88.72
11314;BME280;5712;48.858;9.206;2023-02-18T01:14:46;99015.56;;;11.91;88.49
11314;BME280;5712;48.858;9.206;2023-02-18T01:17:13;99020.69;;;11.94;88.63
11314;BME280;5712;48.858;9.206;2023-02-18T01:19:39;99014.44;;;11.95;88.14
11314;BME280;5712;48.858;9.206;2023-02-18T01:22:07;99015.41;;;11.94;88.60
11314;BME280;5712;48.858;9.206;2023-02-18T01:24:33;99015.41;;;11.94;88.66
11314;BME280;5712;48.858;9.206;2023-02-18T01:27:00;99020.69;;;11.94;88.58
11314;BME280;5712;48.858;9.206;2023-02-18T01:29:26;99003.09;;;11.93;88.78
11314;BME280;5712;48.858;9.206;2023-02-18T01:31:53;99000.06;;;11.99;88.66
11314;BME280;5712;48.858;9.206;2023-02-18T01:34:19;98999.28;;;11.97;89.15
11314;BME280;5712;48.858;9.206;2023-02-18T01:36:46;99008.41;;;11.93;89.20
11314;BME280;5712;48.858;9.206;2023-02-18T01:39:14;99011.34;;;11.88;89.56
11314;BME280;5712;48.858;9.206;2023-02-18T01:41:40;99012.53;;;11.83;89.83
11314;BME280;5712;48.858;9.206;2023-02-18T01:44:15;99011.22;;;11.76;90.04
11314;BME280;5712;48.858;9.206;2023-02-18T01:46:41;99005.91;;;11.76;89.95
11314;BME280;5712;48.858;9.206;2023-02-18T01:49:09;99004.75;;;11.66;90.50
11314;BME280;5712;48.858;9.206;2023-02-18T01:51:39;99006.22;;;11.56;90.95
11314;BME280;5712;48.858;9.206;2023-02-18T01:54:09;99012.72;;;11.50;91.72
11314;BME280;5712;48.858;9.206;2023-02-18T01:56:42;99016.59;;;11.45;92.68
11314;BME280;5712;48.858;9.206;2023-02-18T01:59:12;99010.94;;;11.51;92.42
11314;BME280;5712;48.858;9.206;2023-02-18T02:01:41;99005.81;;;11.48;92.73
11314;BME280;5712;48.858;9.206;2023-02-18T02:04:09;99006.50;;;11.51;92.80
11314;BME280;5712;48.858;9.206;2023-02-18T02:06:35;98998.28;;;11.56;91.98
11314;BME280;5712;48.858;9.206;2023-02-18T02:09:05;98999.66;;;11.63;91.96
11314;BME280;5712;48.858;9.206;2023-02-18T02:14:57;99002.28;;;11.63;91.73
11314;BME280;5712;48.858;9.206;2023-02-18T02:17:40;99000.47;;;11.63;91.72
11314;BME280;5712;48.858;9.206;2023-02-18T02:23:43;98998.63;;;11.65;91.87
11314;BME280;5712;48.858;9.206;2023-02-18T02:26:41;98994.34;;;11.63;91.38
11314;BME280;5712;48.858;9.206;2023-02-18T02:29:40;98986.31;;;11.64;90.71
11314;BME280;5712;48.858;9.206;2023-02-18T02:35:22;98987.34;;;11.62;91.43
11314;BME280;5712;48.858;9.206;2023-02-18T02:37:54;98977.59;;;11.62;91.48
11314;BME280;5712;48.858;9.206;2023-02-18T02:40:29;98978.63;;;11.60;91.65
11314;BME280;5712;48.858;9.206;2023-02-18T02:43:05;98973.50;;;11.57;91.70
11314;BME280;5712;48.858;9.206;2023-02-18T02:45:41;98971.03;;;11.54;91.68
11314;BME280;5712;48.858;9.206;2023-02-18T02:48:14;98981.63;;;11.54;92.11
11314;BME280;5712;48.858;9.206;2023-02-18T02:50:46;98977.47;;;11.50;92.03
11314;BME280;5712;48.858;9.206;2023-02-18T02:53:19;98973.88;;;11.51;91.83
11314;BME280;5712;48.858;9.206;2023-02-18T02:55:47;98959.69;;;11.52;91.40
11314;BME280;5712;48.858;9.206;2023-02-18T02:58:16;98958.56;;;11.56;91.31
11314;BME280;5712;48.858;9.206;2023-02-18T03:00:54;98964.81;;;11.55;91.07
11314;BME280;5712;48.858;9.206;2023-02-18T03:03:41;98957.78;;;11.54;90.89
11314;BME280;5712;48.858;9.206;2023-02-18T03:06:26;98954.22;;;11.55;90.60
11314;BME280;5712;48.858;9.206;2023-02-18T03:09:01;98955.34;;;11.51;90.93
11314;BME280;5712;48.858;9.206;2023-02-18T03:11:34;98960.78;;;11.48;90.74
11314;BME280;5712;48.858;9.206;2023-02-18T03:14:09;98948.34;;;11.50;90.50
11314;BME280;5712;48.858;9.206;2023-02-18T03:16:42;98949.28;;;11.49;90.53
11314;BME280;5712;48.858;9.206;2023-02-18T03:19:13;98941.44;;;11.47;90.85
11314;BME280;5712;48.858;9.206;2023-02-18T03:21:49;98942.47;;;11.45;90.92
11314;BME280;5712;48.858;9.206;2023-02-18T03:24:19;98941.72;;;11.43;91.38
11314;BME280;5712;48.858;9.206;2023-02-18T03:26:51;98943.78;;;11.38;91.52
11314;BME280;5712;48.858;9.206;2023-02-18T03:29:20;98939.59;;;11.34;91.41
11314;BME280;5712;48.858;9.206;2023-02-18T03:31:51;98944.06;;;11.33;92.16
11314;BME280;5712;48.858;9.206;2023-02-18T03:34:22;98940.16;;;11.25;92.38
11314;BME280;5712;48.858;9.206;2023-02-18T03:36:52;98935.78;;;11.24;92.77
11314;BME280;5712;48.858;9.206;2023-02-18T03:39:20;98943.34;;;11.16;93.00
11314;BME280;5712;48.858;9.206;2023-02-18T03:41:48;98935.41;;;11.16;93.12
11314;BME280;5712;48.858;9.206;2023-02-18T03:44:14;98927.84;;;11.24;92.62
11314;BME280;5712;48.858;9.206;2023-02-18T03:46:42;98927.00;;;11.23;92.47
11314;BME280;5712;48.858;9.206;2023-02-18T03:49:10;98932.78;;;11.30;91.89
11314;BME280;5712;48.858;9.206;2023-02-18T03:51:36;98928.94;;;11.35;90.81
11314;BME280;5712;48.858;9.206;2023-02-18T03:54:04;98933.94;;;11.40;90.64
11314;BME280;5712;48.858;9.206;2023-02-18T03:56:31;98933.00;;;11.41;90.33
11314;BME280;5712;48.858;9.206;2023-02-18T03:58:57;98935.63;;;11.41;90.29
11314;BME280;5712;48.858;9.206;2023-02-18T04:01:23;98929.75;;;11.36;90.14
11314;BME280;5712;48.858;9.206;2023-02-18T04:03:50;98930.50;;;11.24;91.18
11314;BME280;5712;48.858;9.206;2023-02-18T04:06:17;98939.00;;;11.15;91.62
11314;BME280;5712;48.858;9.206;2023-02-18T04:08:43;98939.78;;;11.01;92.57
11314;BME280;5712;48.858;9.206;2023-02-18T04:11:11;98941.16;;;10.93;92.58
11314;BME280;5712;48.858;9.206;2023-02-18T04:13:38;98942.66;;;10.83;93.23
11314;BME280;5712;48.858;9.206;2023-02-18T04:16:05;98934.22;;;10.76;93.68
11314;BME280;5712;48.858;9.206;2023-02-18T04:18:31;98937.63;;;10.63;94.35
11314;BME280;5712;48.858;9.206;2023-02-18T04:20:58;98925.03;;;10.52;95.16
11314;BME280;5712;48.858;9.206;2023-02-18T04:23:24;98924.78;;;10.41;95.71
11314;BME280;5712;48.858;9.206;2023-02-18T04:25:51;98932.22;;;10.35;96.67
11314;BME280;5712;48.858;9.206;2023-02-18T04:28:19;98926.50;;;10.27;97.26
11314;BME280;5712;48.858;9.206;2023-02-18T04:30:46;98933.97;;;10.19;97.98
11314;BME280;5712;48.858;9.206;2023-02-18T04:33:13;98933.63;;;10.25;98.27
11314;BME280;5712;48.858;9.206;2023-02-18T04:35:40;98938.44;;;10.34;98.42
11314;BME280;5712;48.858;9.206;2023-02-18T04:38:07;98934.31;;;10.44;97.76
11314;BME280;5712;48.858;9.206;2023-02-18T04:40:34;98937.41;;;10.52;97.54
11314;BME280;5712;48.858;9.206;2023-02-18T04:43:00;98943.19;;;10.58;97.17
11314;BME280;5712;48.858;9.206;2023-02-18T04:45:28;98941.22;;;10.62;96.62
11314;BME280;5712;48.858;9.206;2023-02-18T04:47:55;98946.69;;;10.59;96.83
11314;BME280;5712;48.858;9.206;2023-02-18T04:50:21;98935.34;;;10.57;96.78
11314;BME280;5712;48.858;9.206;2023-02-18T04:52:49;98943.03;;;10.46;97.09
11314;BME280;5712;48.858;9.206;2023-02-18T04:55:15;98945.06;;;10.41;97.30
11314;BME280;5712;48.858;9.206;2023-02-18T04:57:42;98945.06;;;10.25;98.24
11314;BME280;5712;48.858;9.206;2023-02-18T05:00:09;98948.31;;;10.15;98.86
11314;BME280;5712;48.858;9.206;2023-02-18T05:02:40;98945.00;;;10.11;99.20
11314;BME280;5712;48.858;9.206;2023-02-18T05:05:07;98950.00;;;10.16;98.79
11314;BME280;5712;48.858;9.206;2023-02-18T05:07:34;98958.19;;;10.11;99.07
11314;BME280;5712;48.858;9.206;2023-02-18T05:10:00;98955.63;;;10.10;98.94
11314;BME280;5712;48.858;9.206;2023-02-18T05:12:27;98959.22;;;10.09;98.92
11314;BME280;5712;48.858;9.206;2023-02-18T05:14:53;98957.66;;;10.05;99.21
11314;BME280;5712;48.858;9.206;2023-02-18T05:17:20;98960.22;;;10.06;99.13
11314;BME280;5712;48.858;9.206;2023-02-18T05:19:47;98955.03;;;10.05;99.03
11314;BME280;5712;48.858;9.206;2023-02-18T05:22:14;98950.59;;;10.05;99.29
11314;BME280;5712;48.858;9.206;2023-02-18T05:24:40;98941.63;;;10.08;98.86
11314;BME280;5712;48.858;9.206;2023-02-18T05:27:07;98942.50;;;10.08;98.75
11314;BME280;5712;48.858;9.206;2023-02-18T05:29:33;98942.25;;;10.13;98.44
11314;BME280;5712;48.858;9.206;2023-02-18T05:32:00;98943.09;;;10.13;98.36
11314;BME280;5712;48.858;9.206;2023-02-18T05:34:26;98937.91;;;10.12;98.32
11314;BME280;5712;48.858;9.206;2023-02-18T05:36:54;98934.50;;;10.10;98.43
11314;BME280;5712;48.858;9.206;2023-02-18T05:39:20;98935.50;;;10.07;98.66
11314;BME280;5712;48.858;9.206;2023-02-18T05:41:47;98942.75;;;10.04;99.04
11314;BME280;5712;48.858;9.206;2023-02-18T05:44:13;98943.66;;;10.03;98.93
11314;BME280;5712;48.858;9.206;2023-02-18T05:46:55;98945.16;;;9.91;99.63
11314;BME280;5712;48.858;9.206;2023-02-18T05:49:22;98941.81;;;9.88;100.00
11314;BME280;5712;48.858;9.206;2023-02-18T05:51:48;98942.78;;;9.87;100.00
11314;BME280;5712;48.858;9.206;2023-02-18T05:54:16;98938.88;;;9.94;100.00
11314;BME280;5712;48.858;9.206;2023-02-18T05:56:42;98935.13;;;9.98;99.95
11314;BME280;5712;48.858;9.206;2023-02-18T05:59:09;98939.63;;;9.96;99.89
11314;BME280;5712;48.858;9.206;2023-02-18T06:01:35;98940.56;;;9.95;100.00
11314;BME280;5712;48.858;9.206;2023-02-18T06:04:02;98943.88;;;9.98;100.00
11314;BME280;5712;48.858;9.206;2023-02-18T06:06:28;98926.19;;;10.00;100.00
11314;BME280;5712;48.858;9.206;2023-02-18T06:08:55;98927.88;;;10.01;100.00
11314;BME280;5712;48.858;9.206;2023-02-18T06:11:23;98926.25;;;9.99;100.00
11314;BME280;5712;48.858;9.206;2023-02-18T06:13:49;98940.41;;;9.98;100.00
11314;BME280;5712;48.858;9.206;2023-02-18T06:16:16;98950.91;;;9.99;100.00
11314;BME280;5712;48.858;9.206;2023-02-18T06:18:42;98955.13;;;10.02;100.00
11314;BME280;5712;48.858;9.206;2023-02-18T06:21:09;98951.38;;;10.07;100.00
11314;BME280;5712;48.858;9.206;2023-02-18T06:23:35;98957.47;;;10.08;100.00
11314;BME280;5712;48.858;9.206;2023-02-18T06:26:02;98951.38;;;10.07;100.00
11314;BME280;5712;48.858;9.206;2023-02-18T06:28:30;98947.38;;;9.99;100.00
11314;BME280;5712;48.858;9.206;2023-02-18T06:30:56;98939.19;;;9.88;100.00
11314;BME280;5712;48.858;9.206;2023-02-18T06:33:23;98937.81;;;9.81;100.00
11314;BME280;5712;48.858;9.206;2023-02-18T06:35:53;98943.28;;;9.78;100.00
11314;BME280;5712;48.858;9.206;2023-02-18T06:38:20;98939.84;;;9.76;100.00
11314;BME280;5712;48.858;9.206;2023-02-18T06:40:47;98939.69;;;9.79;100.00
11314;BME280;5712;48.858;9.206;2023-02-18T06:43:14;98941.22;;;9.83;100.00
11314;BME280;5712;48.858;9.206;2023-02-18T06:45:41;98944.47;;;9.88;100.00
11314;BME280;5712;48.858;9.206;2023-02-18T06:48:08;98942.44;;;9.93;100.00
11314;BME280;5712;48.858;9.206;2023-02-18T06:50:35;98936.81;;;9.99;100.00
11314;BME280;5712;48.858;9.206;2023-02-18T06:53:01;98947.09;;;10.05;100.00
11314;BME280;5712;48.858;9.206;2023-02-18T06:55:28;98944.03;;;10.12;100.00
11314;BME280;5712;48.858;9.206;2023-02-18T06:57:54;98935.34;;;10.10;100.00
11314;BME280;5712;48.858;9.206;2023-02-18T07:00:21;98941.16;;;10.17;100.00
11314;BME280;5712;48.858;9.206;2023-02-18T07:02:49;98946.34;;;10.18;100.00
11314;BME280;5712;48.858;9.206;2023-02-18T07:05:16;98942.78;;;10.19;100.00
11314;BME280;5712;48.858;9.206;2023-02-18T07:07:42;98932.63;;;10.27;100.00
11314;BME280;5712;48.858;9.206;2023-02-18T07:10:09;98930.94;;;10.26;100.00
11314;BME280;5712;48.858;9.206;2023-02-18T07:12:36;98928.03;;;10.31;100.00
11314;BME280;5712;48.858;9.206;2023-02-18T07:15:03;98930.25;;;10.38;100.00
11314;BME280;5712;48.858;9.206;2023-02-18T07:17:29;98929.38;;;10.38;100.00
11314;BME280;5712;48.858;9.206;2023-02-18T07:19:57;98928.53;;;10.37;100.00
11314;BME280;5712;48.858;9.206;2023-02-18T07:22:25;98937.91;;;10.43;100.00
11314;BME280;5712;48.858;9.206;2023-02-18T07:24:52;98929.03;;;10.44;100.00
11314;BME280;5712;48.858;9.206;2023-02-18T07:27:19;98921.56;;;10.52;100.00
11314;BME280;5712;48.858;9.206;2023-02-18T07:29:46;98932.81;;;10.55;100.00
11314;BME280;5712;48.858;9.206;2023-02-18T07:32:14;98918.38;;;10.61;100.00
11314;BME280;5712;48.858;9.206;2023-02-18T07:34:40;98906.50;;;10.68;100.00
11314;BME280;5712;48.858;9.206;2023-02-18T07:37:08;98907.78;;;10.76;100.00
11314;BME280;5712;48.858;9.206;2023-02-18T07:39:39;98905.78;;;10.80;99.43
11314;BME280;5712;48.858;9.206;2023-02-18T07:42:05;98901.03;;;10.86;99.23
11314;BME280;5712;48.858;9.206;2023-02-18T07:44:32;98894.50;;;10.92;98.71
11314;BME280;5712;48.858;9.206;2023-02-18T07:46:58;98893.97;;;11.01;98.34
11314;BME280;5712;48.858;9.206;2023-02-18T07:49:26;98893.78;;;11.04;97.65
11314;BME280;5712;48.858;9.206;2023-02-18T07:51:52;98886.34;;;11.10;97.09
11314;BME280;5712;48.858;9.206;2023-02-18T07:54:20;98889.97;;;11.23;96.42
11314;BME280;5712;48.858;9.206;2023-02-18T07:56:47;98886.09;;;11.29;95.38
11314;BME280;5712;48.858;9.206;2023-02-18T07:59:13;98875.06;;;11.36;95.21
11314;BME280;5712;48.858;9.206;2023-02-18T08:01:40;98885.63;;;11.36;94.72
11314;BME280;5712;48.858;9.206;2023-02-18T08:04:07;98877.63;;;11.38;93.41
11314;BME280;5712;48.858;9.206;2023-02-18T08:06:35;98881.38;;;11.48;92.80
11314;BME280;5712;48.858;9.206;2023-02-18T08:09:03;98877.91;;;11.47;92.55
11314;BME280;5712;48.858;9.206;2023-02-18T08:11:32;98885.38;;;11.55;92.19
11314;BME280;5712;48.858;9.206;2023-02-18T08:13:59;98881.97;;;11.53;91.83
11314;BME280;5712;48.858;9.206;2023-02-18T08:16:26;98886.91;;;11.59;91.94
11314;BME280;5712;48.858;9.206;2023-02-18T08:18:53;98884.19;;;11.60;91.82
11314;BME280;5712;48.858;9.206;2023-02-18T08:21:21;98885.88;;;11.61;91.95
11314;BME280;5712;48.858;9.206;2023-02-18T08:23:48;98890.88;;;11.66;92.12
11314;BME280;5712;48.858;9.206;2023-02-18T08:26:15;98874.63;;;11.72;90.61
11314;BME280;5712;48.858;9.206;2023-02-18T08:28:43;98878.03;;;11.74;89.23
11314;BME280;5712;48.858;9.206;2023-02-18T08:31:15;98867.44;;;11.88;87.67
11314;BME280;5712;48.858;9.206;2023-02-18T08:33:42;98862.41;;;11.97;85.94
11314;BME280;5712;48.858;9.206;2023-02-18T08:36:09;98857.56;;;12.04;84.84
11314;BME280;5712;48.858;9.206;2023-02-18T08:38:35;98857.72;;;12.15;84.54
11314;BME280;5712;48.858;9.206;2023-02-18T08:41:04;98853.63;;;12.23;82.95
11314;BME280;5712;48.858;9.206;2023-02-18T08:43:31;98855.78;;;12.31;83.10
11314;BME280;5712;48.858;9.206;2023-02-18T08:45:58;98853.06;;;12.32;83.70
11314;BME280;5712;48.858;9.206;2023-02-18T08:48:26;98847.66;;;12.34;83.87
11314;BME280;5712;48.858;9.206;2023-02-18T08:50:53;98848.19;;;12.39;83.62
11314;BME280;5712;48.858;9.206;2023-02-18T08:53:20;98847.59;;;12.48;82.32
11314;BME280;5712;48.858;9.206;2023-02-18T08:55:47;98844.63;;;12.52;82.56
11314;BME280;5712;48.858;9.206;2023-02-18T08:58:13;98846.03;;;12.58;81.99
11314;BME280;5712;48.858;9.206;2023-02-18T09:00:42;98841.09;;;12.66;81.83
11314;BME280;5712;48.858;9.206;2023-02-18T09:03:11;98835.56;;;12.69;79.83
11314;BME280;5712;48.858;9.206;2023-02-18T09:05:38;98847.28;;;12.79;80.83
11314;BME280;5712;48.858;9.206;2023-02-18T09:08:04;98836.44;;;12.82;80.31
11314;BME280;5712;48.858;9.206;2023-02-18T09:10:31;98840.81;;;12.83;80.66
11314;BME280;5712;48.858;9.206;2023-02-18T09:12:58;98835.19;;;12.87;79.92
11314;BME280;5712;48.858;9.206;2023-02-18T09:15:24;98838.66;;;13.02;79.52
11314;BME280;5712;48.858;9.206;2023-02-18T09:17:51;98831.44;;;13.04;77.65
11314;BME280;5712;48.858;9.206;2023-02-18T09:20:19;98834.13;;;13.16;78.13
11314;BME280;5712;48.858;9.206;2023-02-18T09:22:45;98823.16;;;13.21;76.99
11314;BME280;5712;48.858;9.206;2023-02-18T09:25:12;98837.41;;;13.32;78.32
11314;BME280;5712;48.858;9.206;2023-02-18T09:27:38;98828.25;;;13.49;78.35
11314;BME280;5712;48.858;9.206;2023-02-18T09:30:06;98813.63;;;13.56;75.68
11314;BME280;5712;48.858;9.206;2023-02-18T09:32:32;98811.59;;;13.47;76.10
11314;BME280;5712;48.858;9.206;2023-02-18T09:34:59;98811.06;;;13.54;76.38
11314;BME280;5712;48.858;9.206;2023-02-18T09:37:28;98805.50;;;13.57;75.28
11314;BME280;5712;48.858;9.206;2023-02-18T09:39:54;98798.06;;;13.62;74.63
11314;BME280;5712;48.858;9.206;2023-02-18T09:42:27;98795.59;;;13.72;73.29
11314;BME280;5712;48.858;9.206;2023-02-18T09:44:57;98800.38;;;13.79;73.88
11314;BME280;5712;48.858;9.206;2023-02-18T09:47:30;98778.88;;;13.82;72.13
11314;BME280;5712;48.858;9.206;2023-02-18T09:50:05;98786.41;;;13.88;72.97
11314;BME280;5712;48.858;9.206;2023-02-18T09:52:35;98795.25;;;13.89;73.97
11314;BME280;5712;48.858;9.206;2023-02-18T09:55:14;98793.13;;;13.94;72.14
11314;BME280;5712;48.858;9.206;2023-02-18T09:57:44;98795.97;;;14.03;72.48
11314;BME280;5712;48.858;9.206;2023-02-18T10:00:16;98794.13;;;14.04;72.08
11314;BME280;5712;48.858;9.206;2023-02-18T10:02:52;98787.13;;;14.03;71.16
11314;BME280;5712;48.858;9.206;2023-02-18T10:05:20;98791.44;;;13.93;71.42
11314;BME280;5712;48.858;9.206;2023-02-18T10:07:50;98790.66;;;13.91;71.55
11314;BME280;5712;48.858;9.206;2023-02-18T10:10:32;98813.44;;;13.82;72.88
11314;BME280;5712;48.858;9.206;2023-02-18T10:13:00;98824.84;;;13.72;73.59
11314;BME280;5712;48.858;9.206;2023-02-18T10:15:28;98822.50;;;13.67;73.14
11314;BME280;5712;48.858;9.206;2023-02-18T10:17:56;98820.19;;;13.63;73.51
11314;BME280;5712;48.858;9.206;2023-02-18T10:20:25;98816.13;;;13.70;73.32
11314;BME280;5712;48.858;9.206;2023-02-18T10:22:54;98820.38;;;13.72;72.43
11314;BME280;5712;48.858;9.206;2023-02-18T10:25:23;98812.06;;;13.77;70.97
11314;BME280;5712;48.858;9.206;2023-02-18T10:27:52;98804.84;;;13.79;70.63
11314;BME280;5712;48.858;9.206;2023-02-18T10:30:23;98825.88;;;13.82;71.22
11314;BME280;5712;48.858;9.206;2023-02-18T10:32:55;98811.41;;;13.86;69.58
11314;BME280;5712;48.858;9.206;2023-02-18T10:35:28;98794.19;;;13.91;68.34
11314;BME280;5712;48.858;9.206;2023-02-18T10:38:05;98790.56;;;13.92;69.33
11314;BME280;5712;48.858;9.206;2023-02-18T10:40:42;98797.56;;;13.93;69.71
11314;BME280;5712;48.858;9.206;2023-02-18T10:43:26;98796.75;;;13.93;69.81
11314;BME280;5712;48.858;9.206;2023-02-18T10:46:00;98799.69;;;14.01;70.23
11314;BME280;5712;48.858;9.206;2023-02-18T10:48:50;98790.84;;;14.00;69.58
11314;BME280;5712;48.858;9.206;2023-02-18T10:51:23;98793.13;;;13.94;69.69
11314;BME280;5712;48.858;9.206;2023-02-18T10:53:55;98791.63;;;13.90;70.13
11314;BME280;5712;48.858;9.206;2023-02-18T10:56:35;98782.69;;;13.91;70.30
11314;BME280;5712;48.858;9.206;2023-02-18T10:59:09;98782.69;;;13.91;69.46
11314;BME280;5712;48.858;9.206;2023-02-18T11:01:36;98787.81;;;13.94;68.97
11314;BME280;5712;48.858;9.206;2023-02-18T11:04:09;98783.22;;;13.96;68.96
11314;BME280;5712;48.858;9.206;2023-02-18T11:06:39;98773.31;;;13.98;69.52
11314;BME280;5712;48.858;9.206;2023-02-18T11:09:23;98780.84;;;14.04;68.99
11314;BME280;5712;48.858;9.206;2023-02-18T11:11:58;98773.91;;;14.14;68.74
11314;BME280;5712;48.858;9.206;2023-02-18T11:14:37;98769.56;;;14.13;68.15
11314;BME280;5712;48.858;9.206;2023-02-18T11:17:18;98764.97;;;14.15;67.94
11314;BME280;5712;48.858;9.206;2023-02-18T11:19:51;98769.44;;;14.14;68.14
11314;BME280;5712;48.858;9.206;2023-02-18T11:22:20;98765.31;;;14.23;68.02
11314;BME280;5712;48.858;9.206;2023-02-18T11:24:53;98769.41;;;14.27;67.82
11314;BME280;5712;48.858;9.206;2023-02-18T11:27:23;98766.19;;;14.34;67.88
11314;BME280;5712;48.858;9.206;2023-02-18T11:29:52;98736.59;;;14.39;66.13
11314;BME280;5712;48.858;9.206;2023-02-18T11:32:19;98736.31;;;14.31;64.99
11314;BME280;5712;48.858;9.206;2023-02-18T11:34:48;98719.66;;;14.29;63.85
11314;BME280;5712;48.858;9.206;2023-02-18T11:37:17;98730.75;;;14.23;64.42
11314;BME280;5712;48.858;9.206;2023-02-18T11:39:46;98722.63;;;14.24;63.68
11314;BME280;5712;48.858;9.206;2023-02-18T11:42:17;98719.25;;;14.22;64.18
11314;BME280;5712;48.858;9.206;2023-02-18T11:44:49;98728.09;;;14.23;64.24
11314;BME280;5712;48.858;9.206;2023-02-18T11:47:24;98712.59;;;14.28;63.97
11314;BME280;5712;48.858;9.206;2023-02-18T11:50:15;98715.72;;;14.22;63.90
11314;BME280;5712;48.858;9.206;2023-02-18T11:52:43;98711.16;;;14.24;64.08
11314;BME280;5712;48.858;9.206;2023-02-18T11:55:15;98728.81;;;14.25;63.25
11314;BME280;5712;48.858;9.206;2023-02-18T11:57:46;98720.94;;;14.23;63.76
11314;BME280;5712;48.858;9.206;2023-02-18T12:00:21;98724.44;;;14.24;64.58
11314;BME280;5712;48.858;9.206;2023-02-18T12:02:49;98724.50;;;14.35;64.52
11314;BME280;5712;48.858;9.206;2023-02-18T12:05:20;98714.25;;;14.41;64.74
11314;BME280;5712;48.858;9.206;2023-02-18T12:07:49;98715.09;;;14.42;64.61
11314;BME280;5712;48.858;9.206;2023-02-18T12:10:24;98711.47;;;14.43;64.22
11314;BME280;5712;48.858;9.206;2023-02-18T12:12:57;98714.84;;;14.45;64.36
11314;BME280;5712;48.858;9.206;2023-02-18T12:15:33;98710.03;;;14.50;64.55
11314;BME280;5712;48.858;9.206;2023-02-18T12:18:15;98691.63;;;14.47;64.35
11314;BME280;5712;48.858;9.206;2023-02-18T12:20:55;98705.91;;;14.46;64.47
11314;BME280;5712;48.858;9.206;2023-02-18T12:23:32;98699.03;;;14.54;63.33
11314;BME280;5712;48.858;9.206;2023-02-18T12:26:09;98706.81;;;14.57;63.57
11314;BME280;5712;48.858;9.206;2023-02-18T12:28:55;98688.41;;;14.54;62.99
11314;BME280;5712;48.858;9.206;2023-02-18T12:31:33;98690.47;;;14.62;63.21
11314;BME280;5712;48.858;9.206;2023-02-18T12:34:19;98688.19;;;14.57;62.41
11314;BME280;5712;48.858;9.206;2023-02-18T12:36:57;98680.78;;;14.50;63.07
11314;BME280;5712;48.858;9.206;2023-02-18T12:39:41;98688.03;;;14.48;62.53
11314;BME280;5712;48.858;9.206;2023-02-18T12:42:24;98687.66;;;14.41;63.00
11314;BME280;5712;48.858;9.206;2023-02-18T12:45:05;98687.28;;;14.46;62.88
11314;BME280;5712;48.858;9.206;2023-02-18T12:50:48;98681.00;;;14.36;63.49
11314;BME280;5712;48.858;9.206;2023-02-18T12:53:30;98680.47;;;14.31;63.45
11314;BME280;5712;48.858;9.206;2023-02-18T12:56:20;98668.38;;;14.27;63.01
11314;BME280;5712;48.858;9.206;2023-02-18T12:58:56;98680.94;;;14.25;63.66
11314;BME280;5712;48.858;9.206;2023-02-18T13:01:38;98675.38;;;14.28;63.85
11314;BME280;5712;48.858;9.206;2023-02-18T13:04:32;98677.31;;;14.26;64.13
11314;BME280;5712;48.858;9.206;2023-02-18T13:13:06;98667.66;;;14.25;64.04
11314;BME280;5712;48.858;9.206;2023-02-18T13:15:37;98679.47;;;14.21;63.92
11314;BME280;5712;48.858;9.206;2023-02-18T13:18:10;98669.59;;;14.23;64.34
11314;BME280;5712;48.858;9.206;2023-02-18T13:20:40;98656.50;;;14.20;63.82
11314;BME280;5712;48.858;9.206;2023-02-18T13:23:15;98658.81;;;14.24;64.11
11314;BME280;5712;48.858;9.206;2023-02-18T13:25:44;98655.31;;;14.24;64.24
11314;BME280;5712;48.858;9.206;2023-02-18T13:28:19;98650.13;;;14.22;63.81
11314;BME280;5712;48.858;9.206;2023-02-18T13:30:51;98647.56;;;14.21;64.19
11314;BME280;5712;48.858;9.206;2023-02-18T13:33:30;98648.44;;;14.21;63.82
11314;BME280;5712;48.858;9.206;2023-02-18T13:36:04;98643.28;;;14.18;64.30
11314;BME280;5712;48.858;9.206;2023-02-18T13:38:56;98660.56;;;14.13;64.19
11314;BME280;5712;48.858;9.206;2023-02-18T13:41:25;98649.69;;;14.16;64.26
11314;BME280;5712;48.858;9.206;2023-02-18T13:43:52;98646.84;;;14.19;64.56